createdAt,value
2023-05-14T00:00:21.168Z,-86
2023-05-14T00:02:50.771Z,-86
2023-05-14T00:05:19.638Z,-86
2023-05-14T00:07:48.524Z,-86
2023-05-14T00:10:17.805Z,-86
2023-05-14T00:12:46.643Z,-87
2023-05-14T00:15:15.572Z,-86
2023-05-14T00:17:46.062Z,-87
2023-05-14T00:20:15.102Z,-86
2023-05-14T00:22:43.905Z,-85
2023-05-14T00:25:13.041Z,-86
2023-05-14T00:27:41.610Z,-86
2023-05-14T00:30:10.977Z,-87
2023-05-14T00:32:39.973Z,-87
2023-05-14T00:35:12.253Z,-86
2023-05-14T00:37:42.510Z,-85
2023-05-14T00:40:16.109Z,-87
2023-05-14T00:42:45.419Z,-86
2023-05-14T00:45:14.292Z,-85
2023-05-14T00:47:43.074Z,-86
2023-05-14T00:50:15.808Z,-86
2023-05-14T00:52:44.803Z,-86
2023-05-14T00:55:17.427Z,-86
2023-05-14T00:57:46.436Z,-86
2023-05-14T01:00:16.970Z,-85
2023-05-14T01:02:45.854Z,-85
2023-05-14T01:05:17.158Z,-85
2023-05-14T01:07:57.162Z,-86
2023-05-14T01:10:34.370Z,-87
2023-05-14T01:13:13.911Z,-86
2023-05-14T01:15:45.702Z,-87
2023-05-14T01:18:21.884Z,-87
2023-05-14T01:20:53.775Z,-87
2023-05-14T01:23:24.977Z,-87
2023-05-14T01:25:53.664Z,-86
2023-05-14T01:28:33.983Z,-87
2023-05-14T01:31:10.919Z,-86
2023-05-14T01:33:44.480Z,-86
2023-05-14T01:36:14.149Z,-87
2023-05-14T01:38:47.592Z,-87
2023-05-14T01:41:17.671Z,-87
2023-05-14T01:43:47.305Z,-87
2023-05-14T01:46:19.670Z,-87
2023-05-14T01:48:48.657Z,-87
2023-05-14T01:51:17.156Z,-87
2023-05-14T01:53:47.143Z,-87
2023-05-14T01:56:16.092Z,-87
2023-05-14T01:58:44.573Z,-87
2023-05-14T02:01:13.041Z,-87
2023-05-14T02:03:41.931Z,-87
2023-05-14T02:06:10.883Z,-87
2023-05-14T02:08:40.133Z,-87
2023-05-14T02:11:10.352Z,-87
2023-05-14T02:13:39.099Z,-87
2023-05-14T02:16:10.620Z,-87
2023-05-14T02:18:39.351Z,-87
2023-05-14T02:21:08.174Z,-87
2023-05-14T02:23:41.660Z,-87
2023-05-14T02:26:12.611Z,-87
2023-05-14T02:28:41.223Z,-86
2023-05-14T02:31:09.830Z,-86
2023-05-14T02:33:38.387Z,-86
2023-05-14T02:36:07.318Z,-86
2023-05-14T02:38:35.765Z,-86
2023-05-14T02:41:04.379Z,-86
2023-05-14T02:43:34.506Z,-86
2023-05-14T02:46:03.124Z,-86
2023-05-14T02:48:31.650Z,-86
2023-05-14T02:51:00.318Z,-87
2023-05-14T02:53:29.372Z,-86
2023-05-14T02:55:58.022Z,-86
2023-05-14T02:58:28.250Z,-87
2023-05-14T03:00:58.527Z,-87
2023-05-14T03:03:27.501Z,-87
2023-05-14T03:05:56.668Z,-87
2023-05-14T03:08:25.175Z,-87
2023-05-14T03:10:53.622Z,-87
2023-05-14T03:13:22.136Z,-87
2023-05-14T03:15:54.911Z,-87
2023-05-14T03:18:25.403Z,-86
2023-05-14T03:20:53.980Z,-87
2023-05-14T03:23:22.881Z,-86
2023-05-14T03:25:51.398Z,-87
2023-05-14T03:28:19.915Z,-87
2023-05-14T03:30:48.562Z,-87
2023-05-14T03:33:17.087Z,-87
2023-05-14T03:35:46.969Z,-87
2023-05-14T03:38:16.974Z,-86
2023-05-14T03:40:46.312Z,-87
2023-05-14T03:43:14.847Z,-87
2023-05-14T03:45:43.277Z,-87
2023-05-14T03:48:12.058Z,-86
2023-05-14T03:50:41.191Z,-86
2023-05-14T03:53:11.115Z,-86
2023-05-14T03:55:39.664Z,-87
2023-05-14T03:58:13.708Z,-87
2023-05-14T04:00:42.886Z,-87
2023-05-14T04:03:12.045Z,-87
2023-05-14T04:05:40.869Z,-87
2023-05-14T04:08:10.939Z,-87
2023-05-14T04:10:39.657Z,-87
2023-05-14T04:13:08.530Z,-87
2023-05-14T04:15:39.441Z,-86
2023-05-14T04:18:08.282Z,-87
2023-05-14T04:20:37.073Z,-87
2023-05-14T04:23:05.841Z,-87
2023-05-14T04:25:37.461Z,-86
2023-05-14T04:28:06.384Z,-87
2023-05-14T04:30:34.842Z,-86
2023-05-14T04:33:04.452Z,-87
2023-05-14T04:35:33.154Z,-87
2023-05-14T04:38:01.924Z,-87
2023-05-14T04:40:31.269Z,-87
2023-05-14T04:43:01.237Z,-87
2023-05-14T04:45:30.857Z,-87
2023-05-14T04:48:00.299Z,-87
2023-05-14T04:50:29.132Z,-87
2023-05-14T04:52:57.921Z,-87
2023-05-14T04:55:26.483Z,-87
2023-05-14T04:57:54.951Z,-87
2023-05-14T05:00:25.918Z,-87
2023-05-14T05:02:54.698Z,-87
2023-05-14T05:05:23.939Z,-87
2023-05-14T05:07:52.447Z,-87
2023-05-14T05:10:21.267Z,-87
2023-05-14T05:12:50.093Z,-87
2023-05-14T05:15:18.605Z,-87
2023-05-14T05:17:48.808Z,-87
2023-05-14T05:20:17.536Z,-87
2023-05-14T05:22:46.192Z,-87
2023-05-14T05:25:14.843Z,-87
2023-05-14T05:27:43.639Z,-87
2023-05-14T05:30:13.551Z,-87
2023-05-14T05:32:42.427Z,-86
2023-05-14T05:35:12.660Z,-86
2023-05-14T05:37:41.512Z,-86
2023-05-14T05:40:11.111Z,-86
2023-05-14T05:42:39.588Z,-86
2023-05-14T05:45:10.262Z,-87
2023-05-14T05:47:39.245Z,-86
2023-05-14T05:50:09.987Z,-86
2023-05-14T05:52:40.615Z,-87
2023-05-14T05:55:10.502Z,-87
2023-05-14T05:57:39.018Z,-87
2023-05-14T06:00:13.790Z,-87
2023-05-14T06:02:43.260Z,-87
2023-05-14T06:05:12.853Z,-87
2023-05-14T06:07:42.897Z,-87
2023-05-14T06:10:12.243Z,-87
2023-05-14T06:12:40.746Z,-86
2023-05-14T06:15:10.270Z,-85
2023-05-14T06:17:38.793Z,-86
2023-05-14T06:20:09.273Z,-86
2023-05-14T06:22:37.939Z,-86
2023-05-14T06:25:09.505Z,-86
2023-05-14T06:27:38.090Z,-86
2023-05-14T06:30:08.515Z,-86
2023-05-14T06:32:37.126Z,-86
2023-05-14T06:35:06.754Z,-86
2023-05-14T06:37:35.254Z,-86
2023-05-14T06:40:04.060Z,-86
2023-05-14T06:42:34.168Z,-86
2023-05-14T06:45:02.860Z,-86
2023-05-14T06:47:31.377Z,-86
2023-05-14T06:50:02.083Z,-86
2023-05-14T06:52:30.674Z,-86
2023-05-14T06:54:59.163Z,-86
2023-05-14T06:57:29.125Z,-88
2023-05-14T06:59:59.305Z,-87
2023-05-14T07:02:27.910Z,-88
2023-05-14T07:04:56.387Z,-88
2023-05-14T07:07:24.892Z,-88
2023-05-14T07:09:53.390Z,-87
2023-05-14T07:12:21.942Z,-88
2023-05-14T07:14:50.790Z,-87
2023-05-14T07:17:20.880Z,-87
2023-05-14T07:19:50.075Z,-87
2023-05-14T07:22:18.651Z,-87
2023-05-14T07:24:47.308Z,-87
2023-05-14T07:27:17.196Z,-87
2023-05-14T07:29:45.861Z,-87
2023-05-14T07:32:15.700Z,-87
2023-05-14T07:34:46.513Z,-87
2023-05-14T07:37:15.288Z,-87
2023-05-14T07:39:43.958Z,-87
2023-05-14T07:42:21.852Z,-87
2023-05-14T07:44:56.754Z,-86
2023-05-14T07:47:25.559Z,-87
2023-05-14T07:49:58.378Z,-89
2023-05-14T07:52:27.367Z,-88
2023-05-14T07:54:56.103Z,-88
2023-05-14T07:57:25.030Z,-89
2023-05-14T07:59:53.837Z,-88
2023-05-14T08:02:22.470Z,-89
2023-05-14T08:04:51.475Z,-87
2023-05-14T08:07:22.252Z,-88
2023-05-14T08:09:51.057Z,-88
2023-05-14T08:12:19.893Z,-88
2023-05-14T08:14:49.185Z,-88
2023-05-14T08:17:18.187Z,-88
2023-05-14T08:19:47.486Z,-88
2023-05-14T08:22:17.244Z,-88
2023-05-14T08:24:48.480Z,-88
2023-05-14T08:27:17.745Z,-86
2023-05-14T08:29:47.304Z,-85
2023-05-14T08:32:23.238Z,-85
2023-05-14T08:34:53.099Z,-85
2023-05-14T08:37:21.754Z,-85
2023-05-14T08:39:51.693Z,-85
2023-05-14T08:42:23.927Z,-85
2023-05-14T08:45:01.619Z,-85
2023-05-14T08:47:32.175Z,-85
2023-05-14T08:50:06.441Z,-85
2023-05-14T08:52:36.293Z,-85
2023-05-14T08:55:07.897Z,-86
2023-05-14T08:57:38.085Z,-85
2023-05-14T09:00:11.794Z,-85
2023-05-14T09:02:42.552Z,-85
2023-05-14T09:05:12.623Z,-86
2023-05-14T09:07:41.217Z,-85
2023-05-14T09:10:13.752Z,-86
2023-05-14T09:12:42.428Z,-86
2023-05-14T09:15:11.757Z,-85
2023-05-14T09:17:44.884Z,-85
2023-05-14T09:20:14.664Z,-86
2023-05-14T09:22:44.071Z,-85
2023-05-14T09:25:14.880Z,-85
2023-05-14T09:27:43.448Z,-87
2023-05-14T09:30:14.661Z,-85
2023-05-14T09:32:46.206Z,-85
2023-05-14T09:35:18.355Z,-85
2023-05-14T09:37:50.011Z,-86
2023-05-14T09:40:23.840Z,-85
2023-05-14T09:42:52.841Z,-86
2023-05-14T09:45:21.447Z,-85
2023-05-14T09:47:50.583Z,-85
2023-05-14T09:50:19.919Z,-85
2023-05-14T09:52:49.133Z,-86
2023-05-14T09:55:19.823Z,-86
2023-05-14T09:57:48.902Z,-85
2023-05-14T10:00:20.817Z,-87
2023-05-14T10:02:54.092Z,-86
2023-05-14T10:05:26.891Z,-86
2023-05-14T10:08:00.054Z,-86
2023-05-14T10:10:31.731Z,-86
2023-05-14T10:13:05.833Z,-84
2023-05-14T10:15:44.153Z,-84
2023-05-14T10:18:20.205Z,-84
2023-05-14T10:20:58.713Z,-84
2023-05-14T10:23:27.411Z,-84
2023-05-14T10:25:58.593Z,-84
2023-05-14T10:28:27.875Z,-84
2023-05-14T10:30:56.645Z,-85
2023-05-14T10:33:25.523Z,-84
2023-05-14T10:35:59.334Z,-85
2023-05-14T10:38:29.722Z,-85
2023-05-14T10:41:02.737Z,-85
2023-05-14T10:43:38.546Z,-85
2023-05-14T10:46:08.745Z,-86
2023-05-14T10:48:40.102Z,-85
2023-05-14T10:51:10.568Z,-84
2023-05-14T10:53:43.039Z,-85
2023-05-14T10:56:15.932Z,-84
2023-05-14T10:58:46.530Z,-84
2023-05-14T11:01:15.863Z,-84
2023-05-14T11:03:47.120Z,-84
2023-05-14T11:06:17.970Z,-84
2023-05-14T11:08:47.217Z,-85
2023-05-14T11:11:20.212Z,-84
2023-05-14T11:13:50.343Z,-84
2023-05-14T11:16:24.432Z,-84
2023-05-14T11:19:03.908Z,-84
2023-05-14T11:21:34.969Z,-84
2023-05-14T11:24:05.653Z,-84
2023-05-14T11:26:37.733Z,-84
2023-05-14T11:29:07.402Z,-84
2023-05-14T11:31:38.570Z,-84
2023-05-14T11:34:12.256Z,-83
2023-05-14T11:36:42.502Z,-83
2023-05-14T11:39:11.536Z,-84
2023-05-14T11:41:46.432Z,-85
2023-05-14T11:44:15.351Z,-83
2023-05-14T11:46:56.669Z,-84
2023-05-14T11:49:25.713Z,-85
2023-05-14T11:52:00.980Z,-84
2023-05-14T11:54:30.129Z,-84
2023-05-14T11:57:06.279Z,-85
2023-05-14T11:59:34.988Z,-84
2023-05-14T12:02:05.022Z,-84
2023-05-14T12:04:34.246Z,-84
2023-05-14T12:07:11.950Z,-84
2023-05-14T12:09:45.206Z,-84
2023-05-14T12:12:15.877Z,-83
2023-05-14T12:14:46.931Z,-84
2023-05-14T12:17:19.021Z,-84
2023-05-14T12:19:50.470Z,-83
2023-05-14T12:22:22.486Z,-83
2023-05-14T12:24:55.696Z,-84
2023-05-14T12:27:28.272Z,-83
2023-05-14T12:30:19.139Z,-83
2023-05-14T12:32:51.886Z,-84
2023-05-14T12:35:23.862Z,-84
2023-05-14T12:37:52.762Z,-84
2023-05-14T12:40:21.781Z,-84
2023-05-14T12:42:52.750Z,-84
2023-05-14T12:45:22.473Z,-83
2023-05-14T12:47:51.301Z,-83
2023-05-14T12:50:21.351Z,-84
2023-05-14T12:52:49.947Z,-84
2023-05-14T12:55:19.114Z,-84
2023-05-14T12:57:48.044Z,-84
2023-05-14T13:00:21.496Z,-84
2023-05-14T13:02:50.505Z,-84
2023-05-14T13:05:19.410Z,-84
2023-05-14T13:07:48.153Z,-84
2023-05-14T13:10:18.400Z,-84
2023-05-14T13:12:47.728Z,-84
2023-05-14T13:15:16.490Z,-84
2023-05-14T13:17:46.666Z,-85
2023-05-14T13:20:15.599Z,-83
2023-05-14T13:22:44.081Z,-84
2023-05-14T13:25:12.619Z,-84
2023-05-14T13:27:42.374Z,-84
2023-05-14T13:30:12.506Z,-85
2023-05-14T13:32:42.276Z,-84
2023-05-14T13:35:12.685Z,-84
2023-05-14T13:37:41.812Z,-84
2023-05-14T13:40:11.900Z,-84
2023-05-14T13:42:40.889Z,-84
2023-05-14T13:45:11.761Z,-84
2023-05-14T13:47:40.619Z,-83
2023-05-14T13:50:12.106Z,-83
2023-05-14T13:52:40.727Z,-83
2023-05-14T13:55:11.024Z,-83
2023-05-14T13:57:41.958Z,-84
2023-05-14T14:00:11.886Z,-83
2023-05-14T14:02:40.711Z,-84
2023-05-14T14:05:12.626Z,-85
2023-05-14T14:07:41.382Z,-84
2023-05-14T14:10:11.576Z,-84
2023-05-14T14:12:40.243Z,-84
2023-05-14T14:15:11.748Z,-84
2023-05-14T14:17:42.150Z,-84
2023-05-14T14:20:13.532Z,-83
2023-05-14T14:22:44.196Z,-83
2023-05-14T14:25:13.771Z,-84
2023-05-14T14:27:42.615Z,-83
2023-05-14T14:30:15.736Z,-84
2023-05-14T14:32:45.703Z,-82
2023-05-14T14:35:18.743Z,-83
2023-05-14T14:37:52.395Z,-83
2023-05-14T14:40:23.612Z,-84
2023-05-14T14:42:52.722Z,-84
2023-05-14T14:45:21.414Z,-84
2023-05-14T14:47:51.510Z,-83
2023-05-14T14:50:21.726Z,-83
2023-05-14T14:52:50.289Z,-84
2023-05-14T14:55:19.509Z,-81
2023-05-14T14:57:48.297Z,-84
2023-05-14T15:00:20.436Z,-84
2023-05-14T15:02:49.188Z,-84
2023-05-14T15:05:18.481Z,-83
2023-05-14T15:07:48.393Z,-84
2023-05-14T15:10:17.607Z,-84
2023-05-14T15:12:46.209Z,-84
2023-05-14T15:15:14.765Z,-85
2023-05-14T15:17:43.405Z,-83
2023-05-14T15:20:14.597Z,-84
2023-05-14T15:22:43.902Z,-85
2023-05-14T15:25:13.892Z,-84
2023-05-14T15:27:44.132Z,-84
2023-05-14T15:30:14.592Z,-83
2023-05-14T15:32:43.672Z,-84
2023-05-14T15:35:12.584Z,-84
2023-05-14T15:37:46.552Z,-83
2023-05-14T15:40:25.098Z,-84
2023-05-14T15:42:58.087Z,-83
2023-05-14T15:45:29.232Z,-84
2023-05-14T15:47:57.860Z,-83
2023-05-14T15:50:31.923Z,-84
2023-05-14T15:53:07.612Z,-84
2023-05-14T15:55:38.566Z,-85
2023-05-14T15:58:09.738Z,-84
2023-05-14T16:00:38.389Z,-85
2023-05-14T16:03:12.919Z,-84
2023-05-14T16:05:42.885Z,-85
2023-05-14T16:08:16.218Z,-85
2023-05-14T16:10:47.313Z,-84
2023-05-14T16:13:18.781Z,-84
2023-05-14T16:15:53.525Z,-84
2023-05-14T16:18:25.526Z,-84
2023-05-14T16:21:04.315Z,-84
2023-05-14T16:23:50.155Z,-84
2023-05-14T16:26:22.537Z,-84
2023-05-14T16:28:56.072Z,-84
2023-05-14T16:31:27.348Z,-84
2023-05-14T16:34:24.024Z,-84
2023-05-14T16:36:53.434Z,-84
2023-05-14T16:39:22.106Z,-84
2023-05-14T16:41:52.587Z,-84
2023-05-14T16:44:23.991Z,-83
2023-05-14T16:46:53.162Z,-85
2023-05-14T16:49:22.969Z,-85
2023-05-14T16:51:51.523Z,-84
2023-05-14T16:54:21.652Z,-84
2023-05-14T16:56:52.795Z,-83
2023-05-14T16:59:21.457Z,-83
2023-05-14T17:01:50.553Z,-85
2023-05-14T17:04:19.623Z,-85
2023-05-14T17:06:48.268Z,-84
2023-05-14T17:09:17.033Z,-84
2023-05-14T17:11:46.076Z,-83
2023-05-14T17:14:17.041Z,-84
2023-05-14T17:16:45.939Z,-84
2023-05-14T17:19:14.884Z,-83
2023-05-14T17:21:43.401Z,-83
2023-05-14T17:24:12.221Z,-85
2023-05-14T17:26:40.767Z,-84
2023-05-14T17:29:09.573Z,-84
2023-05-14T17:31:39.501Z,-85
2023-05-14T17:34:08.553Z,-84
2023-05-14T17:36:37.031Z,-84
2023-05-14T17:39:06.041Z,-85
2023-05-14T17:41:34.515Z,-84
2023-05-14T17:44:03.202Z,-84
2023-05-14T17:46:33.759Z,-83
2023-05-14T17:49:03.887Z,-84
2023-05-14T17:51:32.928Z,-84
2023-05-14T17:54:01.745Z,-84
2023-05-14T17:56:31.079Z,-85
2023-05-14T17:58:59.814Z,-83
2023-05-14T18:01:28.612Z,-83
2023-05-14T18:03:57.246Z,-84
2023-05-14T18:06:27.376Z,-84
2023-05-14T18:08:55.883Z,-84
2023-05-14T18:11:24.398Z,-85
2023-05-14T18:13:53.026Z,-83
2023-05-14T18:16:22.846Z,-84
2023-05-14T18:18:52.924Z,-83
2023-05-14T18:21:21.428Z,-84
2023-05-14T18:23:51.656Z,-84
2023-05-14T18:26:22.027Z,-84
2023-05-14T18:28:51.126Z,-84
2023-05-14T18:31:21.814Z,-84
2023-05-14T18:33:53.193Z,-84
2023-05-14T18:36:22.963Z,-84
2023-05-14T18:38:53.639Z,-84
2023-05-14T18:41:22.864Z,-84
2023-05-14T18:43:51.600Z,-85
2023-05-14T18:46:20.131Z,-85
2023-05-14T18:48:48.979Z,-86
2023-05-14T18:51:17.560Z,-86
2023-05-14T18:53:46.761Z,-87
2023-05-14T18:56:16.781Z,-87
2023-05-14T18:58:45.200Z,-87
2023-05-14T19:01:14.049Z,-87
2023-05-14T19:03:43.025Z,-87
2023-05-14T19:06:11.895Z,-86
2023-05-14T19:08:40.564Z,-87
2023-05-14T19:11:09.116Z,-87
2023-05-14T19:13:39.460Z,-87
2023-05-14T19:16:09.254Z,-87
2023-05-14T19:18:37.888Z,-87
2023-05-14T19:21:06.759Z,-86
2023-05-14T19:23:35.375Z,-87
2023-05-14T19:26:07.125Z,-87
2023-05-14T19:28:38.111Z,-87
2023-05-14T19:31:10.223Z,-87
2023-05-14T19:33:39.336Z,-87
2023-05-14T19:36:08.388Z,-87
2023-05-14T19:38:37.710Z,-87
2023-05-14T19:41:06.827Z,-88
2023-05-14T19:43:35.774Z,-87
2023-05-14T19:46:06.287Z,-87
2023-05-14T19:48:36.912Z,-86
2023-05-14T19:51:05.778Z,-86
2023-05-14T19:53:34.758Z,-86
2023-05-14T19:56:06.915Z,-87
2023-05-14T19:58:35.813Z,-87
2023-05-14T20:01:08.104Z,-85
2023-05-14T20:03:38.198Z,-87
2023-05-14T20:06:07.486Z,-87
2023-05-14T20:08:36.471Z,-87
2023-05-14T20:11:06.696Z,-87
2023-05-14T20:13:36.683Z,-86
2023-05-14T20:16:07.534Z,-87
2023-05-14T20:18:39.336Z,-87
2023-05-14T20:21:07.887Z,-87
2023-05-14T20:23:37.147Z,-86
2023-05-14T20:26:06.365Z,-86
2023-05-14T20:28:35.309Z,-86
2023-05-14T20:31:04.332Z,-86
2023-05-14T20:33:33.266Z,-86
2023-05-14T20:36:04.585Z,-85
2023-05-14T20:38:35.296Z,-86
2023-05-14T20:41:04.213Z,-87
2023-05-14T20:43:32.896Z,-87
2023-05-14T20:46:01.755Z,-87
2023-05-14T20:48:30.801Z,-86
2023-05-14T20:50:59.404Z,-86
2023-05-14T20:53:29.615Z,-85
2023-05-14T20:55:59.053Z,-85
2023-05-14T20:58:28.682Z,-86
2023-05-14T21:00:59.832Z,-86
2023-05-14T21:03:29.432Z,-85
2023-05-14T21:06:00.735Z,-84
2023-05-14T21:08:33.106Z,-85
2023-05-14T21:11:03.169Z,-85
2023-05-14T21:13:32.093Z,-85
2023-05-14T21:16:01.170Z,-86
2023-05-14T21:18:33.142Z,-85
2023-05-14T21:21:01.749Z,-86
2023-05-14T21:23:31.757Z,-86
2023-05-14T21:26:00.526Z,-85
2023-05-14T21:28:29.609Z,-86
2023-05-14T21:30:58.315Z,-86
2023-05-14T21:33:26.782Z,-85
2023-05-14T21:35:55.625Z,-85
2023-05-14T21:38:24.649Z,-85
2023-05-14T21:40:54.876Z,-85
2023-05-14T21:43:31.531Z,-86
2023-05-14T21:46:00.692Z,-86
2023-05-14T21:48:31.067Z,-87
2023-05-14T21:51:02.181Z,-87
2023-05-14T21:53:34.585Z,-87
2023-05-14T21:56:06.266Z,-87
2023-05-14T21:58:35.899Z,-87
2023-05-14T22:01:09.269Z,-87
2023-05-14T22:03:38.847Z,-87
2023-05-14T22:06:08.155Z,-87
2023-05-14T22:08:38.154Z,-88
2023-05-14T22:11:11.200Z,-87
2023-05-14T22:13:41.772Z,-86
2023-05-14T22:16:14.249Z,-86
2023-05-14T22:18:43.725Z,-87
2023-05-14T22:21:12.521Z,-86
2023-05-14T22:23:41.457Z,-86
2023-05-14T22:26:12.331Z,-86
2023-05-14T22:28:43.214Z,-86
2023-05-14T22:31:12.842Z,-87
2023-05-14T22:33:42.013Z,-87
2023-05-14T22:36:11.800Z,-86
2023-05-14T22:38:43.969Z,-86
2023-05-14T22:41:16.922Z,-85
2023-05-14T22:43:49.183Z,-86
2023-05-14T22:46:19.061Z,-88
2023-05-14T22:48:49.815Z,-87
2023-05-14T22:51:19.246Z,-87
2023-05-14T22:53:49.062Z,-86
2023-05-14T22:56:20.472Z,-86
2023-05-14T22:58:51.674Z,-87
2023-05-14T23:01:22.246Z,-87
2023-05-14T23:03:51.580Z,-87
2023-05-14T23:06:22.608Z,-87
2023-05-14T23:09:04.811Z,-87
2023-05-14T23:12:00.756Z,-87
2023-05-14T23:14:32.209Z,-87
2023-05-14T23:17:30.653Z,-87
2023-05-14T23:20:00.801Z,-87
2023-05-14T23:22:34.096Z,-87
2023-05-14T23:25:04.223Z,-87
2023-05-14T23:27:35.330Z,-87
2023-05-14T23:30:05.587Z,-87
2023-05-14T23:32:38.492Z,-87
2023-05-14T23:35:08.436Z,-87
2023-05-14T23:37:42.228Z,-87
2023-05-14T23:40:12.235Z,-87
2023-05-14T23:42:45.900Z,-87
2023-05-14T23:45:18.836Z,-87
2023-05-14T23:47:50.163Z,-87
2023-05-14T23:50:20.973Z,-87
2023-05-14T23:52:53.249Z,-87
2023-05-14T23:55:24.817Z,-87
2023-05-14T23:57:56.195Z,-87
